Time;durP1;ratioP1;P1;durP2;ratioP2;P2;SDS_P1;SDS_P2;PMS_P1;PMS_P2;Temp;Humidity;BMP_temperature;BMP_pressure;BME280_temperature;BME280_humidity;BME280_pressure;Samples;Min_cycle;Max_cycle;Signal;HPM_P1;HPM_P2
2022/11/23 00:00:17;;;;;;;3.70;1.70;;;10.50;97.20;;;;;;5089797;28;20475;-68
2022/11/23 00:02:44;;;;;;;3.97;2.10;;;10.50;96.90;;;;;;5089029;28;20468;-69
2022/11/23 00:05:12;;;;;;;6.27;2.43;;;10.60;96.80;;;;;;5087875;28;20444;-68
2022/11/23 00:07:39;;;;;;;5.80;2.50;;;10.60;96.70;;;;;;5089196;28;20453;-68
2022/11/23 00:10:06;;;;;;;7.20;2.37;;;10.60;96.70;;;;;;5088851;28;20438;-68
2022/11/23 00:12:33;;;;;;;3.57;1.73;;;10.60;96.60;;;;;;5089506;28;20472;-68
2022/11/23 00:15:01;;;;;;;4.10;1.70;;;10.60;96.50;;;;;;5088171;28;20457;-68
2022/11/23 00:17:28;;;;;;;6.23;1.80;;;10.60;96.60;;;;;;5088503;28;20473;-68
2022/11/23 00:19:54;;;;;;;4.07;1.40;;;10.60;96.60;;;;;;5088003;28;20481;-68
2022/11/23 00:22:21;;;;;;;2.73;1.27;;;10.60;96.70;;;;;;5088993;28;20470;-68
2022/11/23 00:24:48;;;;;;;4.00;1.70;;;10.60;96.60;;;;;;5088417;28;20440;-68
2022/11/23 00:27:15;;;;;;;3.00;1.20;;;10.60;96.90;;;;;;5088948;28;20460;-69
2022/11/23 00:29:41;;;;;;;2.60;1.10;;;10.70;96.60;;;;;;5088453;28;20462;-68
2022/11/23 00:32:09;;;;;;;2.57;1.10;;;10.70;96.60;;;;;;5088654;28;20471;-69
2022/11/23 00:34:36;;;;;;;6.27;1.10;;;10.60;96.50;;;;;;5080754;28;20444;-68
2022/11/23 00:37:03;;;;;;;4.37;1.20;;;10.70;96.40;;;;;;5083878;28;20460;-68
2022/11/23 00:39:30;;;;;;;5.33;1.47;;;10.70;96.40;;;;;;5087819;28;20491;-69
2022/11/23 00:41:56;;;;;;;11.07;2.43;;;10.70;96.30;;;;;;5088956;28;20470;-68
2022/11/23 00:44:23;;;;;;;10.40;2.90;;;10.60;96.30;;;;;;5088201;28;20432;-68
2022/11/23 00:46:50;;;;;;;2.37;1.00;;;10.70;96.50;;;;;;5089362;28;20458;-68
2022/11/23 00:49:18;;;;;;;3.30;1.40;;;10.70;96.70;;;;;;5087992;28;20453;-68
2022/11/23 00:51:45;;;;;;;4.70;1.40;;;10.60;96.20;;;;;;5088171;28;20447;-68
2022/11/23 00:54:12;;;;;;;3.83;1.50;;;10.70;96.20;;;;;;5088909;28;20433;-68
2022/11/23 00:56:39;;;;;;;4.47;1.10;;;10.70;96.30;;;;;;5088503;28;20457;-69
2022/11/23 00:59:06;;;;;;;5.73;1.40;;;10.70;96.30;;;;;;5089630;28;20492;-68
2022/11/23 01:01:35;;;;;;;5.20;1.90;;;10.70;96.30;;;;;;5088510;28;20453;-68
2022/11/23 01:04:04;;;;;;;5.00;1.50;;;10.60;96.10;;;;;;5088040;28;21002;-68
2022/11/23 01:06:35;;;;;;;5.37;1.30;;;10.60;96.20;;;;;;5083532;28;20445;-68
2022/11/23 01:09:04;;;;;;;9.33;1.90;;;10.60;96.20;;;;;;5078821;28;20436;-68
2022/11/23 01:11:32;;;;;;;6.17;1.30;;;10.60;96.30;;;;;;5086488;28;20447;-70
2022/11/23 01:13:59;;;;;;;7.77;1.93;;;10.60;96.20;;;;;;5086951;28;20456;-70
2022/11/23 01:16:28;;;;;;;6.67;1.30;;;10.60;96.10;;;;;;5085964;28;20455;-70
2022/11/23 01:18:56;;;;;;;5.00;1.90;;;10.60;96.10;;;;;;5084561;28;20491;-69
2022/11/23 01:21:24;;;;;;;6.17;1.77;;;10.70;96.20;;;;;;5085194;28;20438;-69
2022/11/23 01:23:53;;;;;;;9.50;2.57;;;10.70;96.10;;;;;;5084972;28;20995;-69
2022/11/23 01:26:20;;;;;;;9.97;1.80;;;10.60;95.90;;;;;;5085140;28;20448;-69
2022/11/23 01:28:47;;;;;;;7.37;1.80;;;10.70;96.00;;;;;;5085474;28;20452;-69
2022/11/23 01:31:15;;;;;;;6.47;1.80;;;10.60;96.00;;;;;;5085927;28;20434;-69
2022/11/23 01:33:42;;;;;;;7.00;1.73;;;10.70;95.90;;;;;;5086967;28;20468;-69
2022/11/23 01:36:11;;;;;;;5.70;1.50;;;10.60;95.90;;;;;;5087044;28;20508;-69
2022/11/23 01:38:37;;;;;;;7.87;2.00;;;10.70;96.00;;;;;;5087455;28;20442;-69
2022/11/23 01:41:06;;;;;;;6.10;1.87;;;10.60;96.10;;;;;;5085488;28;20484;-69
2022/11/23 01:43:33;;;;;;;5.70;1.73;;;10.60;95.80;;;;;;5087063;28;20468;-69
2022/11/23 01:46:01;;;;;;;8.20;1.73;;;10.70;95.80;;;;;;5085559;28;20448;-69
2022/11/23 01:48:32;;;;;;;6.07;1.60;;;10.70;95.80;;;;;;5086268;28;20460;-69
2022/11/23 01:51:02;;;;;;;6.00;1.47;;;10.70;95.80;;;;;;5086617;28;20437;-69
2022/11/23 01:53:31;;;;;;;5.03;1.60;;;10.70;95.70;;;;;;5086464;28;20479;-69
2022/11/23 01:56:01;;;;;;;5.60;1.80;;;10.70;95.60;;;;;;5086548;28;20452;-69
2022/11/23 01:58:32;;;;;;;4.07;1.80;;;10.70;95.60;;;;;;5086036;28;20437;-69
2022/11/23 02:00:59;;;;;;;5.13;1.93;;;10.70;95.50;;;;;;5086225;28;20471;-69
2022/11/23 02:03:27;;;;;;;5.77;1.80;;;10.60;95.50;;;;;;5085327;28;20475;-69
2022/11/23 02:06:00;;;;;;;14.93;2.20;;;10.60;95.70;;;;;;5084962;28;20460;-69
2022/11/23 02:08:29;;;;;;;11.40;2.23;;;10.70;95.80;;;;;;5085040;28;20440;-69
2022/11/23 02:10:56;;;;;;;6.60;1.70;;;10.70;95.80;;;;;;5085119;28;20430;-69
2022/11/23 02:13:25;;;;;;;4.53;2.00;;;10.70;95.80;;;;;;5084826;28;20487;-69
2022/11/23 02:15:55;;;;;;;5.90;1.80;;;10.70;95.60;;;;;;5084949;28;20460;-69
2022/11/23 02:18:24;;;;;;;5.13;2.07;;;10.80;95.60;;;;;;5085066;28;20451;-70
2022/11/23 02:20:52;;;;;;;7.67;2.03;;;10.70;95.50;;;;;;5085070;28;20477;-69
2022/11/23 02:23:31;;;;;;;6.80;1.70;;;10.70;95.70;;;;;;5085824;28;20478;-69
2022/11/23 02:26:03;;;;;;;11.00;2.60;;;10.70;95.80;;;;;;5084921;28;20438;-69
2022/11/23 02:28:37;;;;;;;7.50;2.17;;;10.70;95.60;;;;;;5084646;28;20436;-69
2022/11/23 02:31:03;;;;;;;3.57;1.60;;;10.70;95.60;;;;;;5084762;28;20854;-69
2022/11/23 02:33:31;;;;;;;12.07;2.37;;;10.70;95.70;;;;;;5083531;28;20536;-70
2022/11/23 02:35:59;;;;;;;5.47;1.70;;;10.70;95.80;;;;;;5083513;28;20451;-69
2022/11/23 02:38:31;;;;;;;14.67;2.87;;;10.70;96.00;;;;;;5081350;28;20436;-69
2022/11/23 02:41:00;;;;;;;7.90;2.40;;;10.70;96.10;;;;;;5081430;28;20475;-70
2022/11/23 02:43:27;;;;;;;8.10;1.93;;;10.70;96.10;;;;;;5083512;28;20503;-69
2022/11/23 02:45:56;;;;;;;6.13;2.37;;;10.70;96.10;;;;;;5083733;28;20520;-70
2022/11/23 02:48:23;;;;;;;5.80;2.53;;;10.70;96.00;;;;;;5083734;28;20453;-70
2022/11/23 02:50:50;;;;;;;6.60;2.17;;;10.70;96.00;;;;;;5084258;28;20812;-69
2022/11/23 02:53:18;;;;;;;3.77;1.93;;;10.70;95.90;;;;;;5084474;28;20471;-69
2022/11/23 02:55:44;;;;;;;6.10;2.07;;;10.70;95.60;;;;;;5083664;28;20453;-69
2022/11/23 02:58:13;;;;;;;8.33;2.03;;;10.60;95.60;;;;;;5084636;28;20445;-69
2022/11/23 03:00:40;;;;;;;4.07;1.87;;;10.70;95.70;;;;;;5084466;28;20491;-70
2022/11/23 03:03:07;;;;;;;8.70;2.60;;;10.60;95.60;;;;;;5084320;28;20535;-70
2022/11/23 03:05:34;;;;;;;9.30;2.27;;;10.60;95.60;;;;;;5084503;28;20455;-70
2022/11/23 03:08:00;;;;;;;9.13;2.33;;;10.70;95.50;;;;;;5085291;28;20450;-69
2022/11/23 03:10:27;;;;;;;5.27;2.27;;;10.70;95.40;;;;;;5084202;28;20443;-69
2022/11/23 03:12:55;;;;;;;6.00;2.23;;;10.80;95.30;;;;;;5084450;28;20472;-69
2022/11/23 03:15:23;;;;;;;9.30;2.43;;;10.80;95.40;;;;;;5085114;28;20439;-69
2022/11/23 03:17:50;;;;;;;9.80;2.67;;;10.80;95.20;;;;;;5085955;28;20443;-70
2022/11/23 03:20:18;;;;;;;10.57;2.63;;;10.80;95.10;;;;;;5084835;28;20479;-69
2022/11/23 03:22:45;;;;;;;10.10;2.20;;;10.80;95.10;;;;;;5085643;28;20459;-69
2022/11/23 03:25:12;;;;;;;11.17;2.20;;;10.80;95.00;;;;;;5087060;28;20460;-70
2022/11/23 03:27:39;;;;;;;10.93;2.20;;;10.80;94.90;;;;;;5086011;28;20455;-70
2022/11/23 03:30:08;;;;;;;8.00;3.00;;;10.70;94.70;;;;;;5084881;28;20433;-69
2022/11/23 03:32:36;;;;;;;7.97;2.37;;;10.80;94.80;;;;;;5085872;28;20466;-70
2022/11/23 03:35:03;;;;;;;9.33;2.20;;;10.80;94.80;;;;;;5084912;28;20481;-70
2022/11/23 03:37:30;;;;;;;8.20;2.90;;;10.80;94.70;;;;;;5082874;28;20468;-70
2022/11/23 03:39:57;;;;;;;9.17;1.90;;;10.80;94.80;;;;;;5079030;28;20483;-70
2022/11/23 03:42:23;;;;;;;11.23;2.30;;;10.80;94.80;;;;;;5081784;28;20471;-70
2022/11/23 03:44:50;;;;;;;18.87;2.67;;;10.80;94.60;;;;;;5084910;28;20457;-70
2022/11/23 03:47:17;;;;;;;8.53;2.20;;;10.80;94.60;;;;;;5081741;28;20822;-70
2022/11/23 03:49:45;;;;;;;15.60;2.93;;;10.80;94.60;;;;;;5080832;28;20426;-69
2022/11/23 03:52:13;;;;;;;7.73;2.40;;;10.80;94.60;;;;;;5087947;28;20468;-70
2022/11/23 03:54:39;;;;;;;10.73;2.20;;;10.80;94.70;;;;;;5089162;28;20449;-70
2022/11/23 03:57:06;;;;;;;9.20;2.50;;;10.70;94.60;;;;;;5079199;28;20815;-70
2022/11/23 03:59:33;;;;;;;11.97;2.30;;;10.80;94.50;;;;;;5076166;28;20446;-70
2022/11/23 04:01:59;;;;;;;9.67;3.20;;;10.70;94.50;;;;;;5076334;28;20437;-70
2022/11/23 04:04:26;;;;;;;10.07;2.03;;;10.80;94.40;;;;;;5076116;28;21029;-70
2022/11/23 04:06:54;;;;;;;8.53;2.27;;;10.80;94.30;;;;;;5076199;28;20448;-71
2022/11/23 04:09:21;;;;;;;6.47;2.40;;;10.80;94.20;;;;;;5076188;28;20804;-71
2022/11/23 04:11:47;;;;;;;7.07;2.10;;;10.80;94.10;;;;;;5076087;28;20441;-71
2022/11/23 04:14:14;;;;;;;11.37;2.53;;;10.80;94.20;;;;;;5076108;28;20443;-70
2022/11/23 04:16:41;;;;;;;10.70;2.70;;;10.80;94.00;;;;;;5076084;28;20447;-70
2022/11/23 04:19:08;;;;;;;7.57;2.13;;;10.70;93.80;;;;;;5076060;28;20453;-71
2022/11/23 04:21:34;;;;;;;8.93;1.90;;;10.70;94.00;;;;;;5075969;28;20499;-71
2022/11/23 04:24:03;;;;;;;7.37;2.00;;;10.80;94.10;;;;;;5075900;28;20471;-71
2022/11/23 04:26:30;;;;;;;10.33;2.30;;;10.80;93.90;;;;;;5075766;28;20450;-71
2022/11/23 04:28:56;;;;;;;14.13;3.20;;;10.80;94.00;;;;;;5075886;28;20448;-71
2022/11/23 04:31:23;;;;;;;4.93;2.30;;;10.70;93.90;;;;;;5075958;28;20443;-71
2022/11/23 04:33:50;;;;;;;10.87;2.10;;;10.80;93.90;;;;;;5076609;28;20472;-70
2022/11/23 04:36:17;;;;;;;10.30;2.60;;;10.80;93.80;;;;;;5076046;28;20467;-70
2022/11/23 04:38:43;;;;;;;5.10;1.80;;;10.80;93.80;;;;;;5076094;28;20433;-70
2022/11/23 04:41:11;;;;;;;8.03;1.83;;;10.80;93.90;;;;;;5076817;28;20504;-70
2022/11/23 04:43:38;;;;;;;8.27;2.00;;;10.70;93.90;;;;;;5075627;28;20475;-70
2022/11/23 04:46:05;;;;;;;7.63;3.00;;;10.70;93.90;;;;;;5075537;28;20445;-70
2022/11/23 04:48:32;;;;;;;4.63;2.20;;;10.80;93.90;;;;;;5075833;28;20817;-70
2022/11/23 04:50:59;;;;;;;5.90;2.23;;;10.70;93.80;;;;;;5075361;28;20449;-70
2022/11/23 04:53:25;;;;;;;8.30;2.20;;;10.70;94.00;;;;;;5075511;28;20858;-71
2022/11/23 04:55:52;;;;;;;4.90;1.33;;;10.70;94.00;;;;;;5075330;28;20439;-71
2022/11/23 04:58:20;;;;;;;9.50;2.17;;;10.70;94.00;;;;;;5075218;28;20461;-71
2022/11/23 05:00:47;;;;;;;5.47;2.17;;;10.70;94.20;;;;;;5075057;28;20484;-71
2022/11/23 05:03:14;;;;;;;4.50;1.90;;;10.70;94.40;;;;;;5074721;28;20475;-71
2022/11/23 05:05:41;;;;;;;8.57;1.90;;;10.80;94.40;;;;;;5075258;28;20460;-71
2022/11/23 05:08:09;;;;;;;4.53;1.80;;;10.80;94.40;;;;;;5075053;28;20449;-71
2022/11/23 05:10:36;;;;;;;8.67;2.10;;;10.80;94.40;;;;;;5075028;28;20454;-71
2022/11/23 05:13:03;;;;;;;5.83;1.97;;;10.80;94.40;;;;;;5075063;28;20871;-71
2022/11/23 05:15:31;;;;;;;10.53;3.50;;;10.80;94.50;;;;;;5074990;28;20517;-71
2022/11/23 05:18:01;;;;;;;6.20;1.80;;;10.70;94.70;;;;;;5074781;28;20451;-71
2022/11/23 05:20:29;;;;;;;7.73;2.80;;;10.70;95.00;;;;;;5075743;28;20484;-71
2022/11/23 05:22:55;;;;;;;8.60;3.20;;;10.80;95.30;;;;;;5075977;28;20561;-71
2022/11/23 05:25:22;;;;;;;7.87;2.80;;;10.70;95.50;;;;;;5075723;28;20454;-71
2022/11/23 05:27:49;;;;;;;4.17;2.40;;;10.70;95.70;;;;;;5074517;28;20976;-70
2022/11/23 05:30:16;;;;;;;7.20;2.50;;;10.70;95.80;;;;;;5074743;28;20425;-70
2022/11/23 05:32:44;;;;;;;6.60;2.73;;;10.70;95.80;;;;;;5074362;28;20984;-70
2022/11/23 05:35:11;;;;;;;6.80;2.07;;;10.60;95.60;;;;;;5074608;28;20444;-70
2022/11/23 05:37:38;;;;;;;7.97;2.60;;;10.60;95.70;;;;;;5074150;28;20460;-70
2022/11/23 05:40:06;;;;;;;10.37;2.80;;;10.60;95.70;;;;;;5074403;28;20447;-70
2022/11/23 05:42:33;;;;;;;15.97;2.90;;;10.50;95.60;;;;;;5074804;28;20472;-70
2022/11/23 05:45:00;;;;;;;8.93;2.33;;;10.60;96.00;;;;;;5074416;28;20495;-70
2022/11/23 05:47:27;;;;;;;8.80;2.83;;;10.60;95.50;;;;;;5074061;28;20819;-70
2022/11/23 05:49:55;;;;;;;9.83;2.43;;;10.60;95.50;;;;;;5074236;28;20459;-70
2022/11/23 05:52:24;;;;;;;11.07;2.63;;;10.60;95.50;;;;;;5074335;28;20826;-70
2022/11/23 05:54:51;;;;;;;11.70;2.70;;;10.60;95.60;;;;;;5074382;28;20449;-70
2022/11/23 05:57:18;;;;;;;5.10;2.47;;;10.50;95.70;;;;;;5073877;28;20911;-70
2022/11/23 05:59:45;;;;;;;11.07;2.90;;;10.60;95.80;;;;;;5074113;28;20457;-70
2022/11/23 06:02:12;;;;;;;21.80;3.37;;;10.60;95.80;;;;;;5074101;28;20494;-70
2022/11/23 06:04:38;;;;;;;10.23;2.73;;;10.60;95.70;;;;;;5074240;28;20447;-71
2022/11/23 06:07:06;;;;;;;12.77;3.43;;;10.60;95.60;;;;;;5075106;28;20449;-70
2022/11/23 06:09:33;;;;;;;12.23;2.60;;;10.60;95.60;;;;;;5074151;28;20433;-70
2022/11/23 06:12:00;;;;;;;13.27;2.63;;;10.60;95.40;;;;;;5073801;28;20451;-70
2022/11/23 06:14:26;;;;;;;10.60;2.40;;;10.60;95.40;;;;;;5073358;28;20433;-70
2022/11/23 06:16:53;;;;;;;13.80;2.93;;;10.60;95.40;;;;;;5056311;28;20471;-70
2022/11/23 06:19:21;;;;;;;10.80;2.73;;;10.60;95.30;;;;;;5073915;28;20445;-70
2022/11/23 06:21:47;;;;;;;6.53;2.17;;;10.50;95.30;;;;;;5073900;28;20476;-70
2022/11/23 06:24:15;;;;;;;9.20;2.27;;;10.50;95.40;;;;;;5073703;28;20455;-70
2022/11/23 06:26:42;;;;;;;7.03;2.23;;;10.50;95.30;;;;;;5073231;28;20451;-70
2022/11/23 06:29:09;;;;;;;9.80;2.70;;;10.50;95.20;;;;;;5073326;28;20456;-70
2022/11/23 06:31:36;;;;;;;9.60;2.07;;;10.50;95.30;;;;;;5075923;28;20444;-70
2022/11/23 06:34:03;;;;;;;5.73;2.00;;;10.50;95.40;;;;;;5073806;28;20814;-70
2022/11/23 06:36:29;;;;;;;8.20;1.60;;;10.50;95.40;;;;;;5073605;28;20454;-70
2022/11/23 06:38:56;;;;;;;15.37;1.90;;;10.50;95.50;;;;;;5073612;28;20446;-70
2022/11/23 06:41:24;;;;;;;14.00;2.67;;;10.50;95.60;;;;;;5073613;28;20488;-70
2022/11/23 06:43:51;;;;;;;12.73;4.10;;;10.50;95.70;;;;;;5073683;28;20474;-70
2022/11/23 06:46:18;;;;;;;6.23;2.10;;;10.50;95.80;;;;;;5074008;28;20449;-70
2022/11/23 06:48:46;;;;;;;6.60;1.70;;;10.50;95.90;;;;;;5073610;28;20448;-70
2022/11/23 06:51:13;;;;;;;11.07;2.47;;;10.50;95.80;;;;;;5073376;28;20444;-70
2022/11/23 06:53:40;;;;;;;8.57;2.30;;;10.40;95.80;;;;;;5073323;28;21018;-70
2022/11/23 06:56:07;;;;;;;7.00;2.60;;;10.40;95.70;;;;;;5073520;28;20440;-70
2022/11/23 06:58:36;;;;;;;8.53;2.10;;;10.40;95.70;;;;;;5073373;28;20443;-70
2022/11/23 07:01:04;;;;;;;9.00;2.43;;;10.40;95.60;;;;;;5073338;28;20824;-70
2022/11/23 07:03:31;;;;;;;15.60;2.30;;;10.40;95.50;;;;;;5072806;28;20472;-70
2022/11/23 07:05:58;;;;;;;7.40;2.87;;;10.40;95.50;;;;;;5073323;28;20458;-70
2022/11/23 07:08:25;;;;;;;9.60;2.70;;;10.40;95.70;;;;;;5073476;28;20452;-70
2022/11/23 07:10:51;;;;;;;10.17;2.43;;;10.40;95.30;;;;;;5073441;28;20440;-70
2022/11/23 07:13:18;;;;;;;11.57;2.30;;;10.40;95.20;;;;;;5073308;28;20472;-70
2022/11/23 07:15:46;;;;;;;5.83;2.00;;;10.40;94.90;;;;;;5073082;28;20452;-70
2022/11/23 07:18:13;;;;;;;10.63;2.50;;;10.40;95.10;;;;;;5073093;28;20989;-70
2022/11/23 07:20:39;;;;;;;8.67;2.20;;;10.40;94.70;;;;;;5073378;28;20509;-70
2022/11/23 07:23:07;;;;;;;7.87;1.97;;;10.40;94.50;;;;;;5073378;28;20476;-70
2022/11/23 07:25:35;;;;;;;16.67;2.23;;;10.40;94.00;;;;;;5075874;28;20448;-70
2022/11/23 07:28:04;;;;;;;7.63;1.87;;;10.30;93.80;;;;;;5080383;28;20454;-70
2022/11/23 07:30:32;;;;;;;7.27;1.97;;;10.30;93.60;;;;;;5085794;28;20448;-70
2022/11/23 07:33:01;;;;;;;6.90;2.30;;;10.30;93.60;;;;;;5091010;28;20465;-70
2022/11/23 07:35:28;;;;;;;10.10;1.90;;;10.20;93.40;;;;;;5093435;28;20458;-70
2022/11/23 07:37:55;;;;;;;7.43;2.60;;;10.20;93.50;;;;;;5091940;28;20450;-70
2022/11/23 07:40:22;;;;;;;9.00;1.90;;;10.10;93.30;;;;;;5087154;28;20469;-70
2022/11/23 07:42:48;;;;;;;5.33;1.60;;;10.10;93.10;;;;;;5082057;28;20484;-70
2022/11/23 07:45:15;;;;;;;11.50;2.00;;;10.10;93.20;;;;;;5077445;28;20448;-70
2022/11/23 07:47:42;;;;;;;9.63;1.97;;;10.10;93.00;;;;;;5076794;28;20455;-70
2022/11/23 07:50:12;;;;;;;10.07;3.40;;;10.10;92.90;;;;;;5076707;28;20452;-70
2022/11/23 07:52:40;;;;;;;5.57;2.00;;;10.10;92.50;;;;;;5076739;28;20511;-70
2022/11/23 07:55:08;;;;;;;3.97;1.50;;;10.10;92.60;;;;;;5076860;28;20459;-70
2022/11/23 07:57:34;;;;;;;8.10;2.10;;;10.10;92.60;;;;;;5076665;28;20974;-70
2022/11/23 08:00:01;;;;;;;7.50;2.37;;;10.10;92.30;;;;;;5076797;28;20807;-70
2022/11/23 08:02:28;;;;;;;6.40;1.80;;;10.10;92.20;;;;;;5078018;28;20490;-70
2022/11/23 08:04:55;;;;;;;6.00;2.13;;;10.10;92.40;;;;;;5076995;28;20463;-70
2022/11/23 08:07:23;;;;;;;7.70;1.60;;;10.10;92.30;;;;;;5077354;28;20436;-70
2022/11/23 08:09:50;;;;;;;6.90;2.00;;;10.10;92.30;;;;;;5076519;28;20453;-70
2022/11/23 08:12:17;;;;;;;11.10;1.93;;;10.10;92.30;;;;;;5076286;28;20494;-70
2022/11/23 08:14:43;;;;;;;11.63;2.40;;;10.10;92.40;;;;;;5076432;28;20450;-70
2022/11/23 08:17:10;;;;;;;4.70;2.57;;;10.10;92.20;;;;;;5076220;28;20463;-70
2022/11/23 08:19:37;;;;;;;5.00;1.90;;;10.10;92.60;;;;;;5076287;28;20448;-70
2022/11/23 08:22:04;;;;;;;4.73;1.87;;;10.10;92.30;;;;;;5076299;28;20490;-70
2022/11/23 08:24:32;;;;;;;5.93;1.93;;;10.10;92.30;;;;;;5076349;28;20441;-70
2022/11/23 08:26:58;;;;;;;8.50;2.27;;;10.10;92.20;;;;;;5076160;28;20451;-70
2022/11/23 08:29:25;;;;;;;6.60;1.67;;;10.10;92.00;;;;;;5075802;28;20447;-70
2022/11/23 08:31:52;;;;;;;6.37;2.17;;;10.10;91.90;;;;;;5075993;28;20443;-70
2022/11/23 08:34:19;;;;;;;9.00;3.30;;;10.10;91.80;;;;;;5076517;28;20451;-70
2022/11/23 08:36:46;;;;;;;5.60;2.10;;;10.10;91.60;;;;;;5074883;28;20489;-70
2022/11/23 08:39:15;;;;;;;6.47;2.00;;;10.10;91.70;;;;;;5075810;28;20543;-70
2022/11/23 08:41:43;;;;;;;7.53;2.00;;;10.10;91.60;;;;;;5075714;28;20477;-70
2022/11/23 08:44:11;;;;;;;10.23;2.53;;;10.20;91.60;;;;;;5077491;28;20472;-70
2022/11/23 08:46:38;;;;;;;14.07;2.40;;;10.10;91.50;;;;;;5078118;28;20505;-70
2022/11/23 08:49:06;;;;;;;11.77;3.30;;;10.20;91.50;;;;;;5075750;28;20457;-70
2022/11/23 08:51:33;;;;;;;11.30;3.17;;;10.20;91.40;;;;;;5075842;28;20553;-70
2022/11/23 08:54:00;;;;;;;12.27;2.40;;;10.20;91.50;;;;;;5075458;28;20464;-70
2022/11/23 08:56:26;;;;;;;10.33;2.40;;;10.30;91.60;;;;;;5075560;28;20464;-70
2022/11/23 08:58:54;;;;;;;13.20;2.87;;;10.30;91.50;;;;;;5075458;28;20822;-70
2022/11/23 09:01:21;;;;;;;8.20;2.43;;;10.40;91.60;;;;;;5075565;28;20486;-70
2022/11/23 09:03:48;;;;;;;7.10;2.53;;;10.40;91.70;;;;;;5075444;28;20476;-70
2022/11/23 09:06:15;;;;;;;8.00;2.40;;;10.40;91.60;;;;;;5075362;28;20471;-70
2022/11/23 09:08:42;;;;;;;8.77;3.40;;;10.40;91.50;;;;;;5075378;28;20464;-70
2022/11/23 09:11:12;;;;;;;6.43;2.03;;;10.50;91.60;;;;;;5075280;28;20485;-70
2022/11/23 09:13:39;;;;;;;9.03;2.13;;;10.50;91.60;;;;;;5075230;28;20475;-70
2022/11/23 09:16:08;;;;;;;6.53;2.43;;;10.50;91.60;;;;;;5075237;28;20454;-70
2022/11/23 09:18:35;;;;;;;6.30;2.77;;;10.60;91.50;;;;;;5074889;28;20450;-70
2022/11/23 09:21:04;;;;;;;11.77;2.70;;;10.60;91.60;;;;;;5075034;28;20943;-70
2022/11/23 09:23:31;;;;;;;12.03;2.90;;;10.70;91.40;;;;;;5074631;28;20468;-70
2022/11/23 09:25:58;;;;;;;9.10;3.50;;;10.70;91.30;;;;;;5074832;28;20448;-70
2022/11/23 09:28:26;;;;;;;6.93;2.10;;;10.70;90.90;;;;;;5074461;28;20943;-70
2022/11/23 09:30:53;;;;;;;9.00;2.40;;;10.80;90.90;;;;;;5075314;28;20503;-70
2022/11/23 09:33:21;;;;;;;9.13;2.80;;;10.80;89.90;;;;;;5075086;28;20976;-70
2022/11/23 09:35:55;;;;;;;8.30;3.10;;;10.80;89.70;;;;;;5074674;28;20818;-70
2022/11/23 09:38:22;;;;;;;11.03;2.60;;;10.80;88.90;;;;;;5075228;28;20950;-70
2022/11/23 09:40:55;;;;;;;4.17;1.97;;;10.80;88.50;;;;;;5074666;28;20445;-70
2022/11/23 09:43:37;;;;;;;7.13;2.27;;;10.80;88.90;;;;;;5056628;28;20485;-70
2022/11/23 09:46:16;;;;;;;9.33;2.10;;;10.90;88.40;;;;;;5075052;28;20440;-70
2022/11/23 09:49:03;;;;;;;8.03;2.20;;;10.90;87.10;;;;;;5076917;28;20440;-70
2022/11/23 09:51:30;;;;;;;7.97;2.03;;;11.00;87.10;;;;;;5075225;28;20439;-70
2022/11/23 09:54:02;;;;;;;5.50;1.67;;;11.00;86.50;;;;;;5074956;28;20475;-70
2022/11/23 09:56:32;;;;;;;11.37;3.00;;;11.00;86.90;;;;;;5074920;28;20436;-70
2022/11/23 09:59:02;;;;;;;8.73;3.03;;;11.10;86.80;;;;;;5074438;28;20431;-70
2022/11/23 10:01:30;;;;;;;10.77;2.57;;;11.10;86.00;;;;;;5074408;28;20483;-70
2022/11/23 10:03:58;;;;;;;11.20;1.87;;;11.30;86.50;;;;;;5074340;28;20573;-70
2022/11/23 10:06:27;;;;;;;8.23;2.60;;;11.40;86.30;;;;;;5074653;28;20444;-70
2022/11/23 10:09:07;;;;;;;6.53;2.50;;;11.60;85.20;;;;;;5075006;28;20432;-70
2022/11/23 10:12:00;;;;;;;11.50;2.17;;;11.70;83.70;;;;;;5074419;28;20427;-70
2022/11/23 10:14:39;;;;;;;8.57;2.47;;;11.70;83.70;;;;;;5074104;28;20460;-70
2022/11/23 10:17:15;;;;;;;7.00;1.80;;;11.60;83.00;;;;;;5073875;28;20447;-69
2022/11/23 10:20:00;;;;;;;10.00;2.13;;;11.60;83.10;;;;;;5074256;28;20432;-69
2022/11/23 10:22:36;;;;;;;7.37;2.00;;;11.60;83.90;;;;;;5074283;28;20486;-70
2022/11/23 10:25:14;;;;;;;4.97;2.10;;;11.60;83.70;;;;;;5074334;28;20499;-70
2022/11/23 10:27:42;;;;;;;4.87;1.73;;;11.70;83.60;;;;;;5073834;28;20915;-70
2022/11/23 10:30:12;;;;;;;5.80;2.00;;;11.80;83.60;;;;;;5073908;28;20456;-70
2022/11/23 10:32:45;;;;;;;4.03;1.70;;;11.90;83.40;;;;;;5074306;28;20469;-70
2022/11/23 10:35:15;;;;;;;7.13;1.87;;;12.00;81.90;;;;;;5074007;28;20443;-70
2022/11/23 10:37:42;;;;;;;12.13;2.60;;;12.00;81.60;;;;;;5075202;28;20527;-70
2022/11/23 10:40:16;;;;;;;4.67;1.70;;;12.10;81.10;;;;;;5075208;28;20453;-70
2022/11/23 10:42:47;;;;;;;5.67;1.80;;;12.20;80.00;;;;;;5074929;28;20533;-70
2022/11/23 10:45:20;;;;;;;11.67;3.73;;;12.20;80.20;;;;;;5074969;28;20449;-70
2022/11/23 10:47:51;;;;;;;6.80;1.70;;;12.40;79.70;;;;;;5076657;28;20498;-70
2022/11/23 10:50:28;;;;;;;5.00;1.70;;;12.50;76.90;;;;;;5075178;28;20433;-70
2022/11/23 10:52:57;;;;;;;7.53;1.80;;;12.70;76.00;;;;;;5075392;28;20492;-70
2022/11/23 10:55:28;;;;;;;6.93;2.50;;;12.80;74.20;;;;;;5075810;28;20452;-70
2022/11/23 10:57:55;;;;;;;9.37;2.07;;;13.10;73.20;;;;;;5074945;28;20456;-70
2022/11/23 11:00:25;;;;;;;7.73;1.60;;;13.30;72.00;;;;;;5078998;28;20820;-70
2022/11/23 11:02:54;;;;;;;10.30;2.57;;;13.60;71.50;;;;;;5082062;28;20530;-70
2022/11/23 11:05:50;;;;;;;7.97;1.90;;;13.90;69.50;;;;;;5081986;28;20443;-70
2022/11/23 11:08:19;;;;;;;6.93;2.13;;;14.20;67.10;;;;;;5081709;28;20508;-70
2022/11/23 11:10:48;;;;;;;8.13;1.73;;;14.40;66.20;;;;;;5081817;28;20846;-70
2022/11/23 11:13:23;;;;;;;4.33;2.10;;;14.60;65.20;;;;;;5081638;28;20467;-70
2022/11/23 11:15:58;;;;;;;8.17;1.70;;;14.80;64.60;;;;;;5082219;28;20424;-71
2022/11/23 11:18:30;;;;;;;6.93;1.83;;;15.00;62.80;;;;;;5082185;28;20446;-71
2022/11/23 11:21:00;;;;;;;8.03;2.03;;;15.20;60.60;;;;;;5081841;28;20932;-71
2022/11/23 11:23:30;;;;;;;7.73;1.83;;;15.30;60.70;;;;;;5082272;28;20485;-71
2022/11/23 11:26:18;;;;;;;4.47;1.50;;;15.40;59.50;;;;;;5084735;28;20478;-71
2022/11/23 11:28:49;;;;;;;5.27;1.37;;;15.40;59.70;;;;;;5082471;28;20790;-71
2022/11/23 11:31:28;;;;;;;6.43;2.10;;;15.20;59.30;;;;;;5084192;28;20433;-71
2022/11/23 11:34:01;;;;;;;6.03;1.83;;;15.10;59.90;;;;;;5084178;28;20505;-71
2022/11/23 11:36:36;;;;;;;5.83;1.57;;;15.40;59.50;;;;;;5083025;28;20479;-71
2022/11/23 11:39:07;;;;;;;3.60;1.70;;;15.80;59.00;;;;;;5082640;28;20448;-71
2022/11/23 11:41:36;;;;;;;6.90;1.50;;;16.10;57.80;;;;;;5082454;28;20426;-71
2022/11/23 11:44:09;;;;;;;4.30;1.87;;;16.50;56.90;;;;;;5083153;28;20473;-71
2022/11/23 11:46:40;;;;;;;4.20;1.40;;;16.80;56.00;;;;;;5084132;28;20441;-71
2022/11/23 11:49:12;;;;;;;6.23;1.80;;;17.00;55.30;;;;;;5084224;28;20866;-71
2022/11/23 11:51:43;;;;;;;5.77;1.63;;;17.30;55.10;;;;;;5083720;28;20429;-71
2022/11/23 11:54:17;;;;;;;2.50;1.33;;;17.60;54.00;;;;;;5083200;28;20468;-71
2022/11/23 11:56:46;;;;;;;8.10;2.00;;;17.60;53.60;;;;;;5083499;28;20432;-71
2022/11/23 11:59:17;;;;;;;3.93;1.60;;;17.60;53.90;;;;;;5084373;28;20453;-71
2022/11/23 12:01:54;;;;;;;5.77;1.77;;;17.80;53.90;;;;;;5085447;28;20487;-71
2022/11/23 12:04:26;;;;;;;5.47;1.67;;;18.00;52.70;;;;;;5085617;28;20433;-71
2022/11/23 12:07:02;;;;;;;6.03;1.53;;;17.90;52.10;;;;;;5085479;28;20435;-71
2022/11/23 12:09:34;;;;;;;7.40;2.07;;;17.90;52.00;;;;;;5084904;28;20540;-71
2022/11/23 12:12:03;;;;;;;3.50;2.07;;;17.60;52.60;;;;;;5080999;28;20429;-71
2022/11/23 12:14:30;;;;;;;6.70;1.50;;;17.30;52.80;;;;;;5081850;28;20892;-71
2022/11/23 12:17:04;;;;;;;4.40;1.37;;;16.90;54.00;;;;;;5080485;28;20429;-71
2022/11/23 12:19:39;;;;;;;5.60;1.83;;;16.70;54.70;;;;;;5082936;28;20525;-71
2022/11/23 12:22:35;;;;;;;5.30;2.00;;;16.40;55.50;;;;;;5084930;28;20484;-71
2022/11/23 12:25:16;;;;;;;5.23;1.90;;;16.10;55.90;;;;;;5088238;28;20444;-71
2022/11/23 12:27:54;;;;;;;6.93;1.80;;;15.70;57.00;;;;;;5086076;28;20439;-71
2022/11/23 12:30:25;;;;;;;4.83;1.90;;;15.60;58.00;;;;;;5084151;28;20433;-71
2022/11/23 12:33:08;;;;;;;4.03;1.90;;;15.70;58.00;;;;;;5088737;28;20445;-71
2022/11/23 12:35:48;;;;;;;3.40;1.80;;;15.90;57.30;;;;;;5085446;28;20499;-71
2022/11/23 12:38:29;;;;;;;4.23;2.20;;;16.10;57.40;;;;;;5086338;28;20460;-71
2022/11/23 12:41:22;;;;;;;5.23;2.13;;;16.30;56.20;;;;;;5085909;28;20437;-71
2022/11/23 12:44:03;;;;;;;1.87;1.50;;;16.40;56.40;;;;;;5084421;28;20496;-71
2022/11/23 12:46:37;;;;;;;5.50;1.80;;;16.50;55.40;;;;;;5085093;28;20784;-70
2022/11/23 12:49:21;;;;;;;5.23;1.90;;;16.70;55.20;;;;;;5099207;28;20401;-71
2022/11/23 12:52:00;;;;;;;6.87;2.33;;;16.90;54.70;;;;;;5098568;28;20425;-71
2022/11/23 12:54:40;;;;;;;3.53;1.57;;;17.10;54.10;;;;;;5099508;28;20424;-71